createdAt,value
2017-11-12T00:00:22.992Z,996.97
2017-11-12T00:01:23.041Z,996.99
2017-11-12T00:02:23.091Z,996.95
2017-11-12T00:03:22.996Z,996.95
2017-11-12T00:04:23.091Z,996.95
2017-11-12T00:05:23.094Z,996.96
2017-11-12T00:06:23.099Z,996.96
2017-11-12T00:07:23.078Z,996.93
2017-11-12T00:08:23.132Z,996.90
2017-11-12T00:09:23.056Z,996.91
2017-11-12T00:10:23.104Z,996.88
2017-11-12T00:11:23.105Z,996.88
2017-11-12T00:12:23.079Z,996.91
2017-11-12T00:13:23.137Z,996.90
2017-11-12T00:14:23.032Z,996.90
2017-11-12T00:15:23.053Z,996.87
2017-11-12T00:16:23.053Z,996.90
2017-11-12T00:17:23.153Z,996.87
2017-11-12T00:18:23.147Z,996.84
2017-11-12T00:19:23.062Z,996.88
2017-11-12T00:20:23.108Z,996.90
2017-11-12T00:21:23.156Z,996.90
2017-11-12T00:22:23.130Z,996.89
2017-11-12T00:23:23.024Z,996.97
2017-11-12T00:24:23.091Z,996.88
2017-11-12T00:25:23.110Z,996.90
2017-11-12T00:26:23.050Z,996.90
2017-11-12T00:27:23.066Z,996.91
2017-11-12T00:28:23.109Z,996.86
2017-11-12T00:29:23.115Z,996.87
2017-11-12T00:30:23.085Z,996.90
2017-11-12T00:31:23.126Z,996.87
2017-11-12T00:32:23.126Z,996.86
2017-11-12T00:33:23.129Z,996.82
2017-11-12T00:34:23.170Z,996.85
2017-11-12T00:35:23.129Z,996.87
2017-11-12T00:36:23.091Z,996.86
2017-11-12T00:37:23.128Z,996.86
2017-11-12T00:38:23.115Z,996.85
2017-11-12T00:39:23.027Z,996.88
2017-11-12T00:40:23.145Z,996.92
2017-11-12T00:41:23.146Z,996.86
2017-11-12T00:42:23.081Z,996.88
2017-11-12T00:43:23.126Z,996.86
2017-11-12T00:44:23.120Z,996.88
2017-11-12T00:45:23.153Z,996.84
2017-11-12T00:46:23.170Z,996.88
2017-11-12T00:47:23.041Z,996.83
2017-11-12T00:48:23.078Z,996.82
2017-11-12T00:49:23.104Z,996.84
2017-11-12T00:50:23.078Z,996.80
2017-11-12T00:51:23.165Z,996.82
2017-11-12T00:52:23.148Z,996.83
2017-11-12T00:53:23.125Z,996.83
2017-11-12T00:54:23.078Z,996.81
2017-11-12T00:55:23.063Z,996.78
2017-11-12T00:56:23.047Z,996.79
2017-11-12T00:57:23.063Z,996.81
2017-11-12T00:58:23.044Z,996.81
2017-11-12T00:59:23.135Z,996.78
2017-11-12T01:00:23.141Z,996.83
2017-11-12T01:01:23.107Z,996.80
2017-11-12T01:02:23.038Z,996.82
2017-11-12T01:03:23.164Z,996.77
2017-11-12T01:04:23.169Z,996.73
2017-11-12T01:05:23.134Z,996.75
2017-11-12T01:06:23.052Z,996.75
2017-11-12T01:07:23.059Z,996.73
2017-11-12T01:08:23.049Z,996.75
2017-11-12T01:09:23.041Z,996.75
2017-11-12T01:10:23.043Z,996.75
2017-11-12T01:11:23.072Z,996.75
2017-11-12T01:12:23.112Z,996.67
2017-11-12T01:13:23.173Z,996.70
2017-11-12T01:14:23.082Z,996.69
2017-11-12T01:15:23.087Z,996.67
2017-11-12T01:16:23.190Z,996.69
2017-11-12T01:17:23.162Z,996.69
2017-11-12T01:18:23.192Z,996.67
2017-11-12T01:19:23.192Z,996.68
2017-11-12T01:20:23.201Z,996.68
2017-11-12T01:21:23.193Z,996.65
2017-11-12T01:22:23.132Z,996.66
2017-11-12T01:23:23.196Z,996.66
2017-11-12T01:24:23.195Z,996.64
2017-11-12T01:25:23.128Z,996.62
2017-11-12T01:26:23.150Z,996.66
2017-11-12T01:27:23.099Z,996.57
2017-11-12T01:28:23.146Z,996.60
2017-11-12T01:29:23.125Z,996.59
2017-11-12T01:30:23.147Z,996.62
2017-11-12T01:31:23.103Z,996.63
2017-11-12T01:32:23.155Z,996.66
2017-11-12T01:33:23.064Z,996.60
2017-11-12T01:34:23.085Z,996.58
2017-11-12T01:35:23.108Z,996.63
2017-11-12T01:36:23.083Z,996.63
2017-11-12T01:37:23.190Z,996.64
2017-11-12T01:38:23.192Z,996.64
2017-11-12T01:39:23.112Z,996.61
2017-11-12T01:40:23.197Z,996.61
2017-11-12T01:41:23.196Z,996.59
2017-11-12T01:42:23.161Z,996.54
2017-11-12T01:43:23.116Z,996.49
2017-11-12T01:44:23.120Z,996.48
2017-11-12T01:45:23.159Z,996.48
2017-11-12T01:46:23.145Z,996.45
2017-11-12T01:47:23.208Z,996.46
2017-11-12T01:48:23.145Z,996.43
2017-11-12T01:49:23.209Z,996.39
2017-11-12T01:50:23.213Z,996.38
2017-11-12T01:51:23.215Z,996.37
2017-11-12T01:52:23.212Z,996.38
2017-11-12T01:53:23.098Z,996.43
2017-11-12T01:54:23.150Z,996.43
2017-11-12T01:55:23.219Z,996.41
2017-11-12T01:56:23.214Z,996.40
2017-11-12T01:57:23.147Z,996.36
2017-11-12T01:58:23.217Z,996.34
2017-11-12T01:59:23.177Z,996.34
2017-11-12T02:00:23.234Z,996.36
2017-11-12T02:01:23.153Z,996.33
2017-11-12T02:02:23.220Z,996.36
2017-11-12T02:03:23.154Z,996.35
2017-11-12T02:04:23.219Z,996.37
2017-11-12T02:05:23.218Z,996.39
2017-11-12T02:06:23.151Z,996.37
2017-11-12T02:07:23.153Z,996.35
2017-11-12T02:08:23.221Z,996.35
2017-11-12T02:09:23.154Z,996.38
2017-11-12T02:10:23.222Z,996.36
2017-11-12T02:12:23.223Z,996.40
2017-11-12T02:13:23.224Z,996.40
2017-11-12T02:14:23.158Z,996.38
2017-11-12T02:15:23.228Z,996.42
2017-11-12T02:16:23.158Z,996.37
2017-11-12T02:17:23.131Z,996.40
2017-11-12T02:18:23.098Z,996.41
2017-11-12T02:19:23.075Z,996.42
2017-11-12T02:20:23.089Z,996.42
2017-11-12T02:21:23.174Z,996.41
2017-11-12T02:22:23.129Z,996.39
2017-11-12T02:23:23.130Z,996.38
2017-11-12T02:24:23.126Z,996.38
2017-11-12T02:25:23.155Z,996.38
2017-11-12T02:26:23.169Z,996.38
2017-11-12T02:27:23.239Z,996.38
2017-11-12T02:28:23.168Z,996.38
2017-11-12T02:29:23.234Z,996.35
2017-11-12T02:30:23.175Z,996.32
2017-11-12T02:31:23.243Z,996.37
2017-11-12T02:32:23.186Z,996.33
2017-11-12T02:33:23.170Z,996.30
2017-11-12T02:34:23.173Z,996.28
2017-11-12T02:35:23.237Z,996.29
2017-11-12T02:36:23.128Z,996.32
2017-11-12T02:37:23.204Z,996.31
2017-11-12T02:38:23.164Z,996.30
2017-11-12T02:39:23.231Z,996.32
2017-11-12T02:40:23.109Z,996.33
2017-11-12T02:41:23.178Z,996.35
2017-11-12T02:42:23.129Z,996.35
2017-11-12T02:43:23.152Z,996.35
2017-11-12T02:44:23.131Z,996.35
2017-11-12T02:45:23.110Z,996.34
2017-11-12T02:46:23.146Z,996.32
2017-11-12T02:47:23.097Z,996.35
2017-11-12T02:48:23.261Z,996.37
2017-11-12T02:49:23.192Z,996.33
2017-11-12T02:50:23.149Z,996.33
2017-11-12T02:51:23.148Z,996.34
2017-11-12T02:52:23.263Z,996.29
2017-11-12T02:53:23.195Z,996.31
2017-11-12T02:54:23.298Z,996.36
2017-11-12T02:55:23.148Z,996.37
2017-11-12T02:56:23.198Z,996.37
2017-11-12T02:57:23.250Z,996.34
2017-11-12T02:58:23.189Z,996.36
2017-11-12T02:59:23.258Z,996.33
2017-11-12T03:00:23.192Z,996.30
2017-11-12T03:01:23.288Z,996.30
2017-11-12T03:02:23.254Z,996.29
2017-11-12T03:03:23.186Z,996.25
2017-11-12T03:04:23.192Z,996.29
2017-11-12T03:05:23.258Z,996.23
2017-11-12T03:06:23.190Z,996.23
2017-11-12T03:07:23.256Z,996.25
2017-11-12T03:08:23.191Z,996.21
2017-11-12T03:09:23.259Z,996.16
2017-11-12T03:10:23.195Z,996.14
2017-11-12T03:11:23.259Z,996.11
2017-11-12T03:12:23.199Z,996.12
2017-11-12T03:13:23.260Z,996.11
2017-11-12T03:14:23.194Z,996.09
2017-11-12T03:15:23.262Z,996.07
2017-11-12T03:16:23.300Z,996.08
2017-11-12T03:17:23.263Z,996.06
2017-11-12T03:18:23.201Z,996.02
2017-11-12T03:19:23.199Z,996.04
2017-11-12T03:20:23.269Z,996.01
2017-11-12T03:21:23.265Z,995.94
2017-11-12T03:22:23.268Z,995.95
2017-11-12T03:23:23.205Z,995.95
2017-11-12T03:24:23.206Z,995.96
2017-11-12T03:25:23.150Z,995.97
2017-11-12T03:26:23.269Z,995.93
2017-11-12T03:27:23.206Z,995.95
2017-11-12T03:28:23.272Z,995.95
2017-11-12T03:29:23.269Z,995.88
2017-11-12T03:30:23.210Z,995.85
2017-11-12T03:31:23.274Z,995.84
2017-11-12T03:32:23.207Z,995.80
2017-11-12T03:33:23.271Z,995.78
2017-11-12T03:34:23.211Z,995.77
2017-11-12T03:35:23.276Z,995.80
2017-11-12T03:36:23.267Z,995.78
2017-11-12T03:37:23.230Z,995.76
2017-11-12T03:38:23.160Z,995.76
2017-11-12T03:39:23.177Z,995.81
2017-11-12T03:40:23.185Z,995.82
2017-11-12T03:41:23.144Z,995.84
2017-11-12T03:42:23.187Z,995.85
2017-11-12T03:43:23.212Z,995.89
2017-11-12T03:44:23.264Z,995.90
2017-11-12T03:45:23.235Z,995.87
2017-11-12T03:46:23.301Z,995.86
2017-11-12T03:47:23.216Z,995.85
2017-11-12T03:48:23.282Z,995.87
2017-11-12T03:49:23.218Z,995.85
2017-11-12T03:50:23.217Z,995.82
2017-11-12T03:51:23.283Z,995.83
2017-11-12T03:52:23.290Z,995.78
2017-11-12T03:53:23.235Z,995.80
2017-11-12T03:54:23.284Z,995.79
2017-11-12T03:55:23.221Z,995.76
2017-11-12T03:56:23.288Z,995.73
2017-11-12T03:57:23.223Z,995.71
2017-11-12T03:58:23.295Z,995.75
2017-11-12T03:59:23.221Z,995.73
2017-11-12T04:00:23.245Z,995.77
2017-11-12T04:01:23.290Z,995.74
2017-11-12T04:02:23.224Z,995.72
2017-11-12T04:03:23.291Z,995.77
2017-11-12T04:04:23.234Z,995.73
2017-11-12T04:05:23.291Z,995.74
2017-11-12T04:06:23.226Z,995.67
2017-11-12T04:07:23.294Z,995.67
2017-11-12T04:08:23.222Z,995.61
2017-11-12T04:09:23.298Z,995.62
2017-11-12T04:10:23.231Z,995.62
2017-11-12T04:11:23.303Z,995.64
2017-11-12T04:12:23.233Z,995.62
2017-11-12T04:13:23.234Z,995.67
2017-11-12T04:14:23.300Z,995.61
2017-11-12T04:15:23.227Z,995.58
2017-11-12T04:16:23.180Z,995.56
2017-11-12T04:17:23.248Z,995.50
2017-11-12T04:18:23.179Z,995.48
2017-11-12T04:19:23.217Z,995.46
2017-11-12T04:20:23.261Z,995.49
2017-11-12T04:21:23.215Z,995.48
2017-11-12T04:22:23.233Z,995.44
2017-11-12T04:23:23.185Z,995.45
2017-11-12T04:24:23.187Z,995.46
2017-11-12T04:25:23.278Z,995.45
2017-11-12T04:26:23.303Z,995.47
2017-11-12T04:27:23.239Z,995.45
2017-11-12T04:28:23.308Z,995.48
2017-11-12T04:29:23.246Z,995.43
2017-11-12T04:30:23.310Z,995.44
2017-11-12T04:31:23.244Z,995.45
2017-11-12T04:32:23.322Z,995.46
2017-11-12T04:33:23.310Z,995.45
2017-11-12T04:34:23.242Z,995.50
2017-11-12T04:35:23.340Z,995.47
2017-11-12T04:36:23.400Z,995.47
2017-11-12T04:37:23.313Z,995.41
2017-11-12T04:38:23.244Z,995.43
2017-11-12T04:39:23.315Z,995.43
2017-11-12T04:40:23.250Z,995.45
2017-11-12T04:41:23.316Z,995.44
2017-11-12T04:42:23.246Z,995.40
2017-11-12T04:43:23.252Z,995.40
2017-11-12T04:44:23.318Z,995.35
2017-11-12T04:45:23.250Z,995.37
2017-11-12T04:46:23.250Z,995.31
2017-11-12T04:47:23.319Z,995.30
2017-11-12T04:48:23.320Z,995.32
2017-11-12T04:49:23.248Z,995.24
2017-11-12T04:50:23.256Z,995.20
2017-11-12T04:51:23.319Z,995.23
2017-11-12T04:52:23.250Z,995.24
2017-11-12T04:53:23.322Z,995.21
2017-11-12T04:54:23.324Z,995.19
2017-11-12T04:55:23.253Z,995.20
2017-11-12T04:56:23.323Z,995.14
2017-11-12T04:57:23.264Z,995.15
2017-11-12T04:58:23.258Z,995.15
2017-11-12T04:59:23.257Z,995.12
2017-11-12T05:00:23.327Z,995.11
2017-11-12T05:01:23.259Z,995.11
2017-11-12T05:02:23.299Z,995.16
2017-11-12T05:03:23.257Z,995.15
2017-11-12T05:04:23.331Z,995.12
2017-11-12T05:05:23.332Z,995.13
2017-11-12T05:06:23.263Z,995.12
2017-11-12T05:07:23.305Z,995.12
2017-11-12T05:08:23.261Z,995.16
2017-11-12T05:09:23.262Z,995.15
2017-11-12T05:10:23.281Z,995.10
2017-11-12T05:11:23.279Z,995.09
2017-11-12T05:12:23.301Z,995.09
2017-11-12T05:13:23.313Z,995.06
2017-11-12T05:14:23.225Z,995.09
2017-11-12T05:15:23.285Z,995.08
2017-11-12T05:16:23.230Z,995.14
2017-11-12T05:17:23.326Z,995.10
2017-11-12T05:18:23.245Z,995.14
2017-11-12T05:19:23.203Z,995.10
2017-11-12T05:20:23.271Z,995.13
2017-11-12T05:21:23.240Z,995.10
2017-11-12T05:22:23.208Z,995.08
2017-11-12T05:23:23.240Z,995.05
2017-11-12T05:24:23.324Z,995.05
2017-11-12T05:25:23.331Z,995.08
2017-11-12T05:26:23.275Z,995.06
2017-11-12T05:27:23.354Z,995.05
2017-11-12T05:28:23.276Z,995.02
2017-11-12T05:29:23.342Z,995.02
2017-11-12T05:30:23.281Z,995.03
2017-11-12T05:31:23.346Z,994.98
2017-11-12T05:32:23.279Z,994.98
2017-11-12T05:33:23.353Z,994.93
2017-11-12T05:34:23.278Z,994.95
2017-11-12T05:35:23.344Z,994.92
2017-11-12T05:36:23.346Z,994.92
2017-11-12T05:37:23.285Z,994.94
2017-11-12T05:38:23.349Z,994.89
2017-11-12T05:39:23.288Z,994.89
2017-11-12T05:40:23.349Z,994.84
2017-11-12T05:41:23.286Z,994.82
2017-11-12T05:42:23.228Z,994.74
2017-11-12T05:43:23.289Z,994.69
2017-11-12T05:44:23.352Z,994.67
2017-11-12T05:45:23.290Z,994.62
2017-11-12T05:46:23.353Z,994.58
2017-11-12T05:47:23.290Z,994.60
2017-11-12T05:48:23.368Z,994.60
2017-11-12T05:49:23.354Z,994.55
2017-11-12T05:50:23.288Z,994.57
2017-11-12T05:51:23.356Z,994.54
2017-11-12T05:52:23.295Z,994.58
2017-11-12T05:53:23.358Z,994.61
2017-11-12T05:54:23.293Z,994.64
2017-11-12T05:55:23.460Z,994.63
2017-11-12T05:56:23.358Z,994.61
2017-11-12T05:57:23.287Z,994.58
2017-11-12T05:58:23.294Z,994.53
2017-11-12T05:59:23.360Z,994.49
2017-11-12T06:00:23.367Z,994.47
2017-11-12T06:01:23.302Z,994.45
2017-11-12T06:02:23.367Z,994.45
2017-11-12T06:03:23.332Z,994.43
2017-11-12T06:04:23.402Z,994.44
2017-11-12T06:05:23.296Z,994.44
2017-11-12T06:06:23.396Z,994.41
2017-11-12T06:07:23.330Z,994.34
2017-11-12T06:08:23.370Z,994.32
2017-11-12T06:09:23.303Z,994.25
2017-11-12T06:10:23.369Z,994.25
2017-11-12T06:11:23.302Z,994.26
2017-11-12T06:12:23.265Z,994.24
2017-11-12T06:13:23.375Z,994.18
2017-11-12T06:14:23.340Z,994.16
2017-11-12T06:15:23.369Z,994.18
2017-11-12T06:16:23.315Z,994.20
2017-11-12T06:17:23.394Z,994.25
2017-11-12T06:18:23.238Z,994.16
2017-11-12T06:19:23.306Z,994.18
2017-11-12T06:20:23.237Z,994.16
2017-11-12T06:21:23.269Z,994.14
2017-11-12T06:22:23.306Z,994.11
2017-11-12T06:23:23.297Z,994.08
2017-11-12T06:24:23.269Z,994.05
2017-11-12T06:25:23.274Z,994.03
2017-11-12T06:26:23.269Z,994.05
2017-11-12T06:27:23.309Z,994.06
2017-11-12T06:28:23.383Z,994.03
2017-11-12T06:29:23.379Z,994.05
2017-11-12T06:30:23.314Z,994.05
2017-11-12T06:31:23.265Z,994.05
2017-11-12T06:32:23.314Z,994.07
2017-11-12T06:33:23.424Z,994.07
2017-11-12T06:34:23.384Z,994.08
2017-11-12T06:35:23.321Z,994.08
2017-11-12T06:36:23.385Z,994.11
2017-11-12T06:37:23.384Z,994.15
2017-11-12T06:38:23.314Z,994.13
2017-11-12T06:39:23.387Z,994.13
2017-11-12T06:40:23.324Z,994.13
2017-11-12T06:41:23.320Z,994.13
2017-11-12T06:42:23.385Z,994.11
2017-11-12T06:43:23.324Z,994.05
2017-11-12T06:44:23.388Z,994.07
2017-11-12T06:45:23.317Z,994.03
2017-11-12T06:46:23.344Z,994.00
2017-11-12T06:47:23.388Z,993.99
2017-11-12T06:48:23.326Z,993.95
2017-11-12T06:49:23.398Z,993.94
2017-11-12T06:50:23.393Z,993.90
2017-11-12T06:51:23.390Z,993.90
2017-11-12T06:52:23.336Z,993.87
2017-11-12T06:53:23.394Z,993.87
2017-11-12T06:54:23.327Z,993.87
2017-11-12T06:55:23.393Z,993.80
2017-11-12T06:56:23.331Z,993.76
2017-11-12T06:57:23.330Z,993.74
2017-11-12T06:58:23.397Z,993.72
2017-11-12T06:59:23.397Z,993.68
2017-11-12T07:00:23.367Z,993.69
2017-11-12T07:01:23.338Z,993.63
2017-11-12T07:02:23.396Z,993.58
2017-11-12T07:03:23.329Z,993.51
2017-11-12T07:04:23.399Z,993.51
2017-11-12T07:05:23.337Z,993.46
2017-11-12T07:06:23.422Z,993.46
2017-11-12T07:07:23.305Z,993.42
2017-11-12T07:08:23.531Z,993.40
2017-11-12T07:09:23.342Z,993.35
2017-11-12T07:10:23.280Z,993.33
2017-11-12T07:11:23.371Z,993.26
2017-11-12T07:12:23.396Z,993.24
2017-11-12T07:13:23.347Z,993.19
2017-11-12T07:14:23.399Z,993.12
2017-11-12T07:15:23.389Z,993.11
2017-11-12T07:16:23.375Z,993.08
2017-11-12T07:17:23.329Z,993.07
2017-11-12T07:18:23.371Z,993.05
2017-11-12T07:19:23.310Z,993.03
2017-11-12T07:20:23.278Z,993.03
2017-11-12T07:21:23.377Z,993.02
2017-11-12T07:22:23.401Z,993.05
2017-11-12T07:23:23.334Z,993.05
2017-11-12T07:24:23.359Z,993.05
2017-11-12T07:25:23.323Z,993.04
2017-11-12T07:26:23.314Z,993.06
2017-11-12T07:27:23.412Z,993.12
2017-11-12T07:28:23.350Z,993.13
2017-11-12T07:29:23.413Z,993.14
2017-11-12T07:30:23.349Z,993.15
2017-11-12T07:31:23.420Z,993.15
2017-11-12T07:32:23.344Z,993.10
2017-11-12T07:33:23.419Z,993.08
2017-11-12T07:34:23.367Z,993.00
2017-11-12T07:35:23.416Z,993.00
2017-11-12T07:36:23.343Z,992.94
2017-11-12T07:37:23.330Z,992.98
2017-11-12T07:38:23.403Z,992.96
2017-11-12T07:39:23.331Z,992.95
2017-11-12T07:40:23.409Z,992.97
2017-11-12T07:41:23.352Z,992.94
2017-11-12T07:42:23.328Z,992.94
2017-11-12T07:43:23.372Z,992.91
2017-11-12T07:44:23.364Z,992.92
2017-11-12T07:45:23.301Z,992.89
2017-11-12T07:46:23.331Z,992.85
2017-11-12T07:47:23.323Z,992.79
2017-11-12T07:48:23.325Z,992.76
2017-11-12T07:49:23.410Z,992.73
2017-11-12T07:50:23.336Z,992.69
2017-11-12T07:51:23.425Z,992.71
2017-11-12T07:52:23.328Z,992.70
2017-11-12T07:53:23.338Z,992.59
2017-11-12T07:54:23.311Z,992.61
2017-11-12T07:55:23.394Z,992.62
2017-11-12T07:56:23.314Z,992.54
2017-11-12T07:57:23.432Z,992.49
2017-11-12T07:58:23.361Z,992.52
2017-11-12T07:59:23.433Z,992.51
2017-11-12T08:00:23.362Z,992.51
2017-11-12T08:01:23.363Z,992.49
2017-11-12T08:02:23.435Z,992.48
2017-11-12T08:03:23.367Z,992.45
2017-11-12T08:04:23.436Z,992.40
2017-11-12T08:05:23.408Z,992.43
2017-11-12T08:06:23.475Z,992.48
2017-11-12T08:07:23.577Z,992.44
2017-11-12T08:08:23.363Z,992.46
2017-11-12T08:09:23.573Z,992.52
2017-11-12T08:10:23.375Z,992.51
2017-11-12T08:11:23.437Z,992.52
2017-11-12T08:12:23.408Z,992.50
2017-11-12T08:13:23.373Z,992.48
2017-11-12T08:14:23.461Z,992.44
2017-11-12T08:15:23.442Z,992.43
2017-11-12T08:16:23.442Z,992.40
2017-11-12T08:17:23.374Z,992.37
2017-11-12T08:18:23.449Z,992.36
2017-11-12T08:19:23.375Z,992.32
2017-11-12T08:20:23.444Z,992.25
2017-11-12T08:21:23.375Z,992.28
2017-11-12T08:22:23.446Z,992.28
2017-11-12T08:23:23.380Z,992.32
2017-11-12T08:24:23.447Z,992.28
2017-11-12T08:25:23.378Z,992.32
2017-11-12T08:26:23.377Z,992.32
2017-11-12T08:27:23.448Z,992.34
2017-11-12T08:28:23.379Z,992.31
2017-11-12T08:29:23.450Z,992.28
2017-11-12T08:30:23.376Z,992.23
2017-11-12T08:31:23.449Z,992.19
2017-11-12T08:32:23.380Z,992.19
2017-11-12T08:33:23.449Z,992.20
2017-11-12T08:34:23.423Z,992.16
2017-11-12T08:35:23.386Z,992.18
2017-11-12T08:36:23.453Z,992.17
2017-11-12T08:37:23.305Z,992.16
2017-11-12T08:38:23.344Z,992.17
2017-11-12T08:39:23.405Z,992.11
2017-11-12T08:40:23.352Z,992.14
2017-11-12T08:41:23.352Z,992.14
2017-11-12T08:42:23.307Z,992.12
2017-11-12T08:43:23.367Z,992.13
2017-11-12T08:44:23.314Z,992.14
2017-11-12T08:45:23.311Z,992.11
2017-11-12T08:46:23.406Z,992.07
2017-11-12T08:47:23.320Z,992.08
2017-11-12T08:48:23.388Z,992.05
2017-11-12T08:49:23.442Z,992.04
2017-11-12T08:50:23.423Z,992.01
2017-11-12T08:51:23.388Z,991.98
2017-11-12T08:52:23.327Z,991.94
2017-11-12T08:53:23.411Z,991.92
2017-11-12T08:54:23.353Z,991.87
2017-11-12T08:55:23.445Z,991.88
2017-11-12T08:56:23.352Z,991.85
2017-11-12T08:57:23.364Z,991.86
2017-11-12T08:58:23.314Z,991.86
2017-11-12T08:59:23.411Z,991.83
2017-11-12T09:00:23.413Z,991.85
2017-11-12T09:01:23.364Z,991.84
2017-11-12T09:02:23.366Z,991.82
2017-11-12T09:03:23.413Z,991.81
2017-11-12T09:04:23.324Z,991.82
2017-11-12T09:05:23.418Z,991.79
2017-11-12T09:06:23.366Z,991.80
2017-11-12T09:07:23.411Z,991.73
2017-11-12T09:08:23.436Z,991.73
2017-11-12T09:09:23.475Z,991.73
2017-11-12T09:10:23.402Z,991.72
2017-11-12T09:11:23.471Z,991.69
2017-11-12T09:12:23.404Z,991.68
2017-11-12T09:13:23.359Z,991.70
2017-11-12T09:14:23.402Z,991.72
2017-11-12T09:15:23.412Z,991.76
2017-11-12T09:16:23.479Z,991.72
2017-11-12T09:17:23.465Z,991.69
2017-11-12T09:18:23.390Z,991.67
2017-11-12T09:19:23.437Z,991.62
2017-11-12T09:20:23.431Z,991.58
2017-11-12T09:21:23.444Z,991.59
2017-11-12T09:22:23.410Z,991.63
2017-11-12T09:23:23.447Z,991.64
2017-11-12T09:24:23.371Z,991.65
2017-11-12T09:25:23.370Z,991.63
2017-11-12T09:26:23.463Z,991.60
2017-11-12T09:27:23.412Z,991.64
2017-11-12T09:28:23.486Z,991.63
2017-11-12T09:29:23.549Z,991.64
2017-11-12T09:30:23.485Z,991.61
2017-11-12T09:31:23.488Z,991.59
2017-11-12T09:32:23.417Z,991.53
2017-11-12T09:33:23.487Z,991.53
2017-11-12T09:34:23.413Z,991.55
2017-11-12T09:35:23.496Z,991.51
2017-11-12T09:36:23.414Z,991.52
2017-11-12T09:37:23.492Z,991.51
2017-11-12T09:38:23.422Z,991.51
2017-11-12T09:39:23.493Z,991.50
2017-11-12T09:40:23.424Z,991.48
2017-11-12T09:41:23.493Z,991.50
2017-11-12T09:42:23.433Z,991.48
2017-11-12T09:43:23.494Z,991.47
2017-11-12T09:44:23.423Z,991.42
2017-11-12T09:45:23.496Z,991.41
2017-11-12T09:46:23.429Z,991.40
2017-11-12T09:47:23.426Z,991.39
2017-11-12T09:48:23.497Z,991.37
2017-11-12T09:49:23.402Z,991.31
2017-11-12T09:50:23.445Z,991.29
2017-11-12T09:51:23.404Z,991.23
2017-11-12T09:52:23.444Z,991.19
2017-11-12T09:53:23.442Z,991.15
2017-11-12T09:54:23.509Z,991.21
2017-11-12T09:55:23.429Z,991.20
2017-11-12T09:56:23.498Z,991.23
2017-11-12T09:57:23.506Z,991.25
2017-11-12T09:58:23.438Z,991.25
2017-11-12T09:59:23.507Z,991.27
2017-11-12T10:00:23.437Z,991.25
2017-11-12T10:01:23.506Z,991.15
2017-11-12T10:02:23.439Z,991.17
2017-11-12T10:03:23.505Z,991.15
2017-11-12T10:04:23.508Z,991.15
2017-11-12T10:05:23.447Z,991.13
2017-11-12T10:06:23.509Z,991.08
2017-11-12T10:07:23.508Z,991.09
2017-11-12T10:08:23.462Z,991.07
2017-11-12T10:09:23.510Z,991.04
2017-11-12T10:10:23.448Z,991.03
2017-11-12T10:11:23.515Z,991.01
2017-11-12T10:12:23.450Z,991.01
2017-11-12T10:13:23.513Z,990.99
2017-11-12T10:14:23.505Z,990.97
2017-11-12T10:15:23.513Z,990.96
2017-11-12T10:16:23.449Z,990.94
2017-11-12T10:17:23.514Z,990.89
2017-11-12T10:18:23.444Z,990.83
2017-11-12T10:19:23.514Z,990.81
2017-11-12T10:20:23.452Z,990.71
2017-11-12T10:21:23.547Z,990.68
2017-11-12T10:22:23.448Z,990.63
2017-11-12T10:23:23.526Z,990.57
2017-11-12T10:24:23.451Z,990.56
2017-11-12T10:25:23.521Z,990.50
2017-11-12T10:26:23.467Z,990.50
2017-11-12T10:27:23.470Z,990.40
2017-11-12T10:28:23.505Z,990.27
2017-11-12T10:29:23.519Z,990.24
2017-11-12T10:30:23.519Z,990.22
2017-11-12T10:31:23.493Z,990.21
2017-11-12T10:32:23.492Z,990.19
2017-11-12T10:33:23.522Z,990.15
2017-11-12T10:34:23.564Z,990.10
2017-11-12T10:35:23.424Z,990.11
2017-11-12T10:36:23.491Z,990.10
2017-11-12T10:37:23.476Z,990.13
2017-11-12T10:38:23.458Z,990.18
2017-11-12T10:39:23.542Z,990.16
2017-11-12T10:40:23.463Z,990.13
2017-11-12T10:41:23.534Z,990.02
2017-11-12T10:42:23.528Z,989.96
2017-11-12T10:43:23.535Z,989.92
2017-11-12T10:44:23.461Z,989.82
2017-11-12T10:45:23.533Z,989.80
2017-11-12T10:46:23.482Z,989.72
2017-11-12T10:47:23.483Z,989.70
2017-11-12T10:48:23.481Z,989.69
2017-11-12T10:49:23.415Z,989.68
2017-11-12T10:50:23.420Z,989.72
2017-11-12T10:51:23.481Z,989.68
2017-11-12T10:52:23.463Z,989.64
2017-11-12T10:53:23.504Z,989.57
2017-11-12T10:54:23.524Z,989.52
2017-11-12T10:55:23.418Z,989.42
2017-11-12T10:56:23.508Z,989.40
2017-11-12T10:57:23.454Z,989.33
2017-11-12T10:58:23.415Z,989.33
2017-11-12T10:59:23.366Z,989.27
2017-11-12T11:00:23.427Z,989.27
2017-11-12T11:01:23.453Z,989.22
2017-11-12T11:02:23.465Z,989.15
2017-11-12T11:03:23.367Z,989.09
2017-11-12T11:04:23.362Z,989.05
2017-11-12T11:05:23.361Z,989.03
2017-11-12T11:06:23.466Z,989.04
2017-11-12T11:07:23.376Z,989.04
2017-11-12T11:08:23.545Z,988.98
2017-11-12T11:09:23.546Z,988.92
2017-11-12T11:10:23.480Z,988.91
2017-11-12T11:11:23.428Z,988.92
2017-11-12T11:12:23.478Z,988.93
2017-11-12T11:13:23.551Z,988.94
2017-11-12T11:14:23.548Z,988.94
2017-11-12T11:15:23.553Z,988.96
2017-11-12T11:16:23.502Z,988.89
2017-11-12T11:17:23.549Z,988.88
2017-11-12T11:18:23.484Z,988.87
2017-11-12T11:19:23.555Z,988.88
2017-11-12T11:20:23.484Z,988.89
2017-11-12T11:21:23.556Z,988.83
2017-11-12T11:22:23.495Z,988.76
2017-11-12T11:23:23.556Z,988.70
2017-11-12T11:24:23.487Z,988.69
2017-11-12T11:25:23.557Z,988.66
2017-11-12T11:26:23.512Z,988.65
2017-11-12T11:27:23.571Z,988.67
2017-11-12T11:28:23.503Z,988.83
2017-11-12T11:29:23.545Z,988.91
2017-11-12T11:30:23.560Z,989.02
2017-11-12T11:31:23.521Z,989.05
2017-11-12T11:32:23.487Z,989.07
2017-11-12T11:33:23.476Z,989.10
2017-11-12T11:34:23.557Z,989.07
2017-11-12T11:35:23.561Z,989.02
2017-11-12T11:36:23.560Z,988.98
2017-11-12T11:37:23.441Z,988.94
2017-11-12T11:38:23.563Z,988.90
2017-11-12T11:39:23.495Z,988.93
2017-11-12T11:40:23.564Z,988.88
2017-11-12T11:41:23.495Z,988.88
2017-11-12T11:42:23.567Z,988.85
2017-11-12T11:43:23.540Z,988.80
2017-11-12T11:44:23.498Z,988.79
2017-11-12T11:45:23.568Z,988.72
2017-11-12T11:46:23.500Z,988.69
2017-11-12T11:47:23.571Z,988.64
2017-11-12T11:48:23.498Z,988.67
2017-11-12T11:49:23.569Z,988.65
2017-11-12T11:50:23.505Z,988.69
2017-11-12T11:51:23.574Z,988.67
2017-11-12T11:52:23.503Z,988.69
2017-11-12T11:53:23.575Z,988.69
2017-11-12T11:54:23.512Z,988.68
2017-11-12T11:55:23.574Z,988.68
2017-11-12T11:56:23.587Z,988.66
2017-11-12T11:57:23.508Z,988.63
2017-11-12T11:58:23.578Z,988.58
2017-11-12T11:59:23.505Z,988.48
2017-11-12T12:00:23.576Z,988.45
2017-11-12T12:01:23.579Z,988.44
2017-11-12T12:02:23.512Z,988.53
2017-11-12T12:03:23.507Z,988.56
2017-11-12T12:04:23.579Z,988.57
2017-11-12T12:05:23.512Z,988.53
2017-11-12T12:06:23.515Z,988.51
2017-11-12T12:07:23.581Z,988.52
2017-11-12T12:08:23.570Z,988.51
2017-11-12T12:09:23.466Z,988.50
2017-11-12T12:10:23.587Z,988.53
2017-11-12T12:11:23.569Z,988.59
2017-11-12T12:12:23.512Z,988.57
2017-11-12T12:13:23.506Z,988.58
2017-11-12T12:14:23.509Z,988.63
2017-11-12T12:15:23.488Z,988.62
2017-11-12T12:16:23.553Z,988.58
2017-11-12T12:17:23.489Z,988.56
2017-11-12T12:18:23.467Z,988.51
2017-11-12T12:19:23.569Z,988.49
2017-11-12T12:20:23.552Z,988.44
2017-11-12T12:21:23.457Z,988.44
2017-11-12T12:22:23.443Z,988.40
2017-11-12T12:23:23.519Z,988.39
2017-11-12T12:24:23.441Z,988.41
2017-11-12T12:25:23.554Z,988.41
2017-11-12T12:26:23.454Z,988.37
2017-11-12T12:27:23.449Z,988.33
2017-11-12T12:28:23.593Z,988.28
2017-11-12T12:29:23.521Z,988.24